sensor_id;sensor_type;location;lat;lon;timestamp;pressure;altitude;pressure_sealevel;temperature;humidity
23172;BME280;11754;42.664;23.594;2023-11-21T00:00:24;95258.00;;;3.88;73.88
23172;BME280;11754;42.664;23.594;2023-11-21T00:02:50;95247.81;;;3.85;74.15
23172;BME280;11754;42.664;23.594;2023-11-21T00:05:15;95264.09;;;3.98;73.53
23172;BME280;11754;42.664;23.594;2023-11-21T00:07:41;95252.00;;;3.97;72.98
23172;BME280;11754;42.664;23.594;2023-11-21T00:10:07;95265.38;;;4.04;72.45
23172;BME280;11754;42.664;23.594;2023-11-21T00:12:34;95257.38;;;4.05;72.61
23172;BME280;11754;42.664;23.594;2023-11-21T00:15:00;95270.44;;;4.05;72.90
23172;BME280;11754;42.664;23.594;2023-11-21T00:17:25;95259.69;;;3.99;72.85
23172;BME280;11754;42.664;23.594;2023-11-21T00:19:51;95257.34;;;3.96;73.60
23172;BME280;11754;42.664;23.594;2023-11-21T00:22:19;95253.34;;;3.92;73.62
23172;BME280;11754;42.664;23.594;2023-11-21T00:24:45;95254.06;;;3.94;73.78
23172;BME280;11754;42.664;23.594;2023-11-21T00:27:10;95262.19;;;4.00;73.80
23172;BME280;11754;42.664;23.594;2023-11-21T00:29:36;95267.84;;;4.05;74.21
23172;BME280;11754;42.664;23.594;2023-11-21T00:32:01;95246.53;;;4.00;73.94
23172;BME280;11754;42.664;23.594;2023-11-21T00:34:27;95271.81;;;4.09;74.09
23172;BME280;11754;42.664;23.594;2023-11-21T00:36:52;95255.75;;;4.04;74.41
23172;BME280;11754;42.664;23.594;2023-11-21T00:39:18;95260.41;;;4.01;74.39
23172;BME280;11754;42.664;23.594;2023-11-21T00:41:43;95256.69;;;4.03;74.08
23172;BME280;11754;42.664;23.594;2023-11-21T00:44:10;95247.34;;;4.01;74.04
23172;BME280;11754;42.664;23.594;2023-11-21T00:46:36;95241.03;;;4.03;74.20
23172;BME280;11754;42.664;23.594;2023-11-21T00:59:13;95259.19;;;4.15;73.21
23172;BME280;11754;42.664;23.594;2023-11-21T01:01:38;95254.25;;;4.12;73.20
23172;BME280;11754;42.664;23.594;2023-11-21T01:04:03;95254.25;;;4.12;73.28
23172;BME280;11754;42.664;23.594;2023-11-21T01:06:29;95247.63;;;4.07;73.10
23172;BME280;11754;42.664;23.594;2023-11-21T01:08:55;95247.63;;;3.98;72.85
23172;BME280;11754;42.664;23.594;2023-11-21T01:11:20;95239.63;;;3.99;72.91
23172;BME280;11754;42.664;23.594;2023-11-21T01:13:46;95249.50;;;3.96;73.02
23172;BME280;11754;42.664;23.594;2023-11-21T01:16:11;95245.66;;;3.90;73.31
23172;BME280;11754;42.664;23.594;2023-11-21T01:18:37;95236.00;;;3.81;73.48
23172;BME280;11754;42.664;23.594;2023-11-21T01:21:03;95254.44;;;3.89;73.51
23172;BME280;11754;42.664;23.594;2023-11-21T01:23:28;95241.22;;;3.81;73.27
23172;BME280;11754;42.664;23.594;2023-11-21T01:25:56;95247.31;;;3.91;72.81
23172;BME280;11754;42.664;23.594;2023-11-21T01:28:21;95246.59;;;3.89;72.60
23172;BME280;11754;42.664;23.594;2023-11-21T01:30:48;95239.56;;;3.80;72.62
23172;BME280;11754;42.664;23.594;2023-11-21T01:33:13;95254.66;;;3.76;73.10
23172;BME280;11754;42.664;23.594;2023-11-21T01:35:41;95237.97;;;3.68;73.27
23172;BME280;11754;42.664;23.594;2023-11-21T01:38:07;95234.00;;;3.64;72.93
23172;BME280;11754;42.664;23.594;2023-11-21T01:40:33;95233.41;;;3.60;73.14
23172;BME280;11754;42.664;23.594;2023-11-21T01:42:59;95233.31;;;3.61;72.93
23172;BME280;11754;42.664;23.594;2023-11-21T01:45:24;95244.09;;;3.57;73.01
23172;BME280;11754;42.664;23.594;2023-11-21T01:47:50;95243.28;;;3.56;73.24
23172;BME280;11754;42.664;23.594;2023-11-21T01:50:16;95247.28;;;3.60;73.28
23172;BME280;11754;42.664;23.594;2023-11-21T01:52:48;95238.31;;;3.53;72.97
23172;BME280;11754;42.664;23.594;2023-11-21T01:55:16;95253.47;;;3.59;73.58
23172;BME280;11754;42.664;23.594;2023-11-21T01:57:44;95234.22;;;3.51;73.23
23172;BME280;11754;42.664;23.594;2023-11-21T02:00:10;95233.41;;;3.60;73.37
23172;BME280;11754;42.664;23.594;2023-11-21T02:02:45;95246.03;;;3.55;72.70
23172;BME280;11754;42.664;23.594;2023-11-21T02:05:12;95241.22;;;3.50;72.96
23172;BME280;11754;42.664;23.594;2023-11-21T02:07:42;95247.06;;;3.43;73.25
23172;BME280;11754;42.664;23.594;2023-11-21T02:10:16;95248.53;;;3.35;73.02
23172;BME280;11754;42.664;23.594;2023-11-21T02:12:42;95238.09;;;3.35;73.00
23172;BME280;11754;42.664;23.594;2023-11-21T02:15:12;95247.19;;;3.41;72.89
23172;BME280;11754;42.664;23.594;2023-11-21T02:17:43;95223.09;;;3.28;73.23
23172;BME280;11754;42.664;23.594;2023-11-21T02:20:13;95224.03;;;3.27;73.32
23172;BME280;11754;42.664;23.594;2023-11-21T02:22:43;95230.78;;;3.29;73.62
23172;BME280;11754;42.664;23.594;2023-11-21T02:25:10;95240.66;;;3.26;73.60
23172;BME280;11754;42.664;23.594;2023-11-21T02:27:36;95249.44;;;3.25;73.44
23172;BME280;11754;42.664;23.594;2023-11-21T02:30:03;95245.53;;;3.19;73.53
23172;BME280;11754;42.664;23.594;2023-11-21T02:32:29;95248.78;;;3.11;73.39
23172;BME280;11754;42.664;23.594;2023-11-21T02:34:57;95231.75;;;3.07;73.92
23172;BME280;11754;42.664;23.594;2023-11-21T02:37:26;95234.03;;;3.22;73.49
23172;BME280;11754;42.664;23.594;2023-11-21T02:39:51;95242.28;;;3.27;73.00
23172;BME280;11754;42.664;23.594;2023-11-21T02:42:18;95235.50;;;3.15;73.27
23172;BME280;11754;42.664;23.594;2023-11-21T02:44:43;95255.13;;;3.19;73.47
23172;BME280;11754;42.664;23.594;2023-11-21T02:47:09;95245.47;;;3.09;74.34
23172;BME280;11754;42.664;23.594;2023-11-21T02:49:35;95235.56;;;3.03;74.22
23172;BME280;11754;42.664;23.594;2023-11-21T02:52:01;95228.66;;;3.02;74.53
23172;BME280;11754;42.664;23.594;2023-11-21T02:54:26;95222.63;;;3.02;74.48
23172;BME280;11754;42.664;23.594;2023-11-21T02:56:52;95237.88;;;3.06;74.16
23172;BME280;11754;42.664;23.594;2023-11-21T02:59:18;95236.97;;;3.07;74.64
23172;BME280;11754;42.664;23.594;2023-11-21T03:01:45;95240.00;;;3.12;74.07
23172;BME280;11754;42.664;23.594;2023-11-21T03:04:10;95237.19;;;3.04;74.46
23172;BME280;11754;42.664;23.594;2023-11-21T03:06:36;95244.63;;;3.09;73.98
23172;BME280;11754;42.664;23.594;2023-11-21T03:09:01;95249.97;;;3.07;73.87
23172;BME280;11754;42.664;23.594;2023-11-21T03:11:27;95234.66;;;2.93;74.06
23172;BME280;11754;42.664;23.594;2023-11-21T03:13:52;95225.88;;;2.94;74.07
23172;BME280;11754;42.664;23.594;2023-11-21T03:16:18;95224.00;;;2.96;74.46
23172;BME280;11754;42.664;23.594;2023-11-21T03:18:44;95234.41;;;2.96;74.46
23172;BME280;11754;42.664;23.594;2023-11-21T03:21:10;95217.34;;;2.92;74.46
23172;BME280;11754;42.664;23.594;2023-11-21T03:23:35;95238.59;;;3.08;74.27
23172;BME280;11754;42.664;23.594;2023-11-21T03:26:01;95223.47;;;3.02;74.02
23172;BME280;11754;42.664;23.594;2023-11-21T03:28:27;95220.41;;;2.97;73.83
23172;BME280;11754;42.664;23.594;2023-11-21T03:30:53;95219.03;;;2.93;73.56
23172;BME280;11754;42.664;23.594;2023-11-21T03:33:18;95230.50;;;2.91;73.93
23172;BME280;11754;42.664;23.594;2023-11-21T03:35:44;95218.69;;;2.86;73.68
23172;BME280;11754;42.664;23.594;2023-11-21T03:38:09;95236.53;;;2.91;73.87
23172;BME280;11754;42.664;23.594;2023-11-21T03:40:35;95239.19;;;2.80;73.83
23172;BME280;11754;42.664;23.594;2023-11-21T03:43:00;95231.88;;;2.74;73.94
23172;BME280;11754;42.664;23.594;2023-11-21T03:45:26;95244.16;;;2.83;74.20
23172;BME280;11754;42.664;23.594;2023-11-21T03:47:51;95250.97;;;2.74;73.94
23172;BME280;11754;42.664;23.594;2023-11-21T03:50:17;95250.09;;;2.74;73.95
23172;BME280;11754;42.664;23.594;2023-11-21T03:52:42;95256.03;;;2.76;74.15
23172;BME280;11754;42.664;23.594;2023-11-21T03:55:08;95257.00;;;2.75;74.29
23172;BME280;11754;42.664;23.594;2023-11-21T03:57:33;95233.22;;;2.68;74.21
23172;BME280;11754;42.664;23.594;2023-11-21T03:59:59;95237.81;;;2.76;74.14
23172;BME280;11754;42.664;23.594;2023-11-21T04:02:24;95244.84;;;2.96;73.74
23172;BME280;11754;42.664;23.594;2023-11-21T04:04:53;95227.78;;;2.92;72.96
23172;BME280;11754;42.664;23.594;2023-11-21T04:10:53;95231.34;;;2.91;73.04
23172;BME280;11754;42.664;23.594;2023-11-21T04:13:18;95216.72;;;2.79;73.24
23172;BME280;11754;42.664;23.594;2023-11-21T04:15:44;95221.94;;;2.79;72.94
23172;BME280;11754;42.664;23.594;2023-11-21T04:18:09;95222.09;;;2.66;73.14
23172;BME280;11754;42.664;23.594;2023-11-21T04:20:35;95230.75;;;2.55;74.30
23172;BME280;11754;42.664;23.594;2023-11-21T04:23:01;95227.81;;;2.49;73.79
23172;BME280;11754;42.664;23.594;2023-11-21T04:25:26;95217.19;;;2.40;74.69
23172;BME280;11754;42.664;23.594;2023-11-21T04:27:52;95214.50;;;2.42;74.90
23172;BME280;11754;42.664;23.594;2023-11-21T04:30:18;95226.31;;;2.46;74.83
23172;BME280;11754;42.664;23.594;2023-11-21T04:32:43;95213.72;;;2.51;74.15
23172;BME280;11754;42.664;23.594;2023-11-21T04:35:09;95215.38;;;2.52;74.65
23172;BME280;11754;42.664;23.594;2023-11-21T04:37:34;95216.81;;;2.56;74.63
23172;BME280;11754;42.664;23.594;2023-11-21T04:40:00;95205.25;;;2.49;75.06
23172;BME280;11754;42.664;23.594;2023-11-21T04:42:25;95212.91;;;2.51;75.28
23172;BME280;11754;42.664;23.594;2023-11-21T04:44:51;95203.56;;;2.48;75.06
23172;BME280;11754;42.664;23.594;2023-11-21T04:47:18;95218.91;;;2.62;74.58
23172;BME280;11754;42.664;23.594;2023-11-21T04:49:45;95202.84;;;2.57;74.63
23172;BME280;11754;42.664;23.594;2023-11-21T04:52:12;95201.69;;;2.50;75.70
23172;BME280;11754;42.664;23.594;2023-11-21T04:54:38;95207.09;;;2.58;75.49
23172;BME280;11754;42.664;23.594;2023-11-21T04:57:05;95203.53;;;2.59;75.33
23172;BME280;11754;42.664;23.594;2023-11-21T04:59:32;95220.19;;;2.68;75.11
23172;BME280;11754;42.664;23.594;2023-11-21T05:12:03;95224.06;;;2.74;74.45
23172;BME280;11754;42.664;23.594;2023-11-21T05:14:28;95212.00;;;2.73;74.90
23172;BME280;11754;42.664;23.594;2023-11-21T05:16:54;95223.81;;;2.77;74.99
23172;BME280;11754;42.664;23.594;2023-11-21T05:19:19;95207.94;;;2.80;75.31
23172;BME280;11754;42.664;23.594;2023-11-21T05:21:46;95209.34;;;2.84;74.86
23172;BME280;11754;42.664;23.594;2023-11-21T05:24:12;95229.56;;;2.92;74.71
23172;BME280;11754;42.664;23.594;2023-11-21T05:26:37;95211.84;;;2.85;75.04
23172;BME280;11754;42.664;23.594;2023-11-21T05:29:03;95204.59;;;2.89;75.13
23172;BME280;11754;42.664;23.594;2023-11-21T05:31:29;95210.44;;;3.02;75.23
23172;BME280;11754;42.664;23.594;2023-11-21T05:33:55;95197.34;;;3.13;74.68
23172;BME280;11754;42.664;23.594;2023-11-21T05:36:20;95197.56;;;3.22;74.40
23172;BME280;11754;42.664;23.594;2023-11-21T05:38:46;95207.72;;;3.25;74.32
23172;BME280;11754;42.664;23.594;2023-11-21T05:41:11;95213.53;;;3.38;74.48
23172;BME280;11754;42.664;23.594;2023-11-21T05:43:39;95231.03;;;3.47;74.16
23172;BME280;11754;42.664;23.594;2023-11-21T05:46:04;95211.25;;;3.45;74.42
23172;BME280;11754;42.664;23.594;2023-11-21T05:48:32;95230.13;;;3.58;74.38
23172;BME280;11754;42.664;23.594;2023-11-21T06:01:05;95241.91;;;3.52;72.04
23172;BME280;11754;42.664;23.594;2023-11-21T06:03:32;95231.63;;;3.60;72.70
23172;BME280;11754;42.664;23.594;2023-11-21T06:05:58;95228.50;;;3.67;72.09
23172;BME280;11754;42.664;23.594;2023-11-21T06:08:23;95218.00;;;3.78;71.93
23172;BME280;11754;42.664;23.594;2023-11-21T06:10:49;95224.78;;;3.90;71.36
23172;BME280;11754;42.664;23.594;2023-11-21T06:13:15;95223.03;;;4.00;71.04
23172;BME280;11754;42.664;23.594;2023-11-21T06:15:40;95224.84;;;4.09;70.77
23172;BME280;11754;42.664;23.594;2023-11-21T06:18:06;95221.28;;;4.10;70.88
23172;BME280;11754;42.664;23.594;2023-11-21T06:20:35;95237.00;;;4.30;70.29
23172;BME280;11754;42.664;23.594;2023-11-21T06:23:02;95227.41;;;4.40;70.36
23172;BME280;11754;42.664;23.594;2023-11-21T06:25:40;95224.00;;;4.69;70.00
23172;BME280;11754;42.664;23.594;2023-11-21T06:28:07;95246.16;;;5.03;68.05
23172;BME280;11754;42.664;23.594;2023-11-21T06:30:32;95232.41;;;5.21;67.71
23172;BME280;11754;42.664;23.594;2023-11-21T06:32:58;95235.56;;;5.15;67.64
23172;BME280;11754;42.664;23.594;2023-11-21T06:35:24;95235.97;;;5.10;68.13
23172;BME280;11754;42.664;23.594;2023-11-21T06:37:50;95232.97;;;5.05;68.38
23172;BME280;11754;42.664;23.594;2023-11-21T06:40:17;95247.78;;;5.34;67.57
23172;BME280;11754;42.664;23.594;2023-11-21T06:42:46;95242.31;;;5.27;67.45
23172;BME280;11754;42.664;23.594;2023-11-21T06:45:12;95255.50;;;5.45;67.66
23172;BME280;11754;42.664;23.594;2023-11-21T06:47:38;95256.44;;;5.53;67.53
23172;BME280;11754;42.664;23.594;2023-11-21T06:56:48;95254.47;;;6.22;66.04
23172;BME280;11754;42.664;23.594;2023-11-21T06:59:13;95256.59;;;6.36;65.28
23172;BME280;11754;42.664;23.594;2023-11-21T07:01:39;95252.00;;;6.66;63.98
23172;BME280;11754;42.664;23.594;2023-11-21T07:04:06;95251.53;;;6.98;63.72
23172;BME280;11754;42.664;23.594;2023-11-21T07:06:32;95253.78;;;7.29;62.31
23172;BME280;11754;42.664;23.594;2023-11-21T07:08:58;95241.50;;;7.55;61.25
23172;BME280;11754;42.664;23.594;2023-11-21T07:11:24;95238.06;;;7.55;61.04
23172;BME280;11754;42.664;23.594;2023-11-21T07:13:50;95243.63;;;7.78;60.02
23172;BME280;11754;42.664;23.594;2023-11-21T07:16:16;95230.66;;;7.76;60.17
23172;BME280;11754;42.664;23.594;2023-11-21T07:18:41;95238.88;;;7.81;60.75
23172;BME280;11754;42.664;23.594;2023-11-21T07:21:06;95252.56;;;7.93;60.19
23172;BME280;11754;42.664;23.594;2023-11-21T07:23:33;95240.03;;;8.13;60.12
23172;BME280;11754;42.664;23.594;2023-11-21T07:25:59;95242.34;;;8.42;60.18
23172;BME280;11754;42.664;23.594;2023-11-21T07:28:24;95230.78;;;8.69;58.41
23172;BME280;11754;42.664;23.594;2023-11-21T07:30:51;95235.75;;;8.97;57.54
23172;BME280;11754;42.664;23.594;2023-11-21T07:33:18;95230.84;;;9.26;56.04
23172;BME280;11754;42.664;23.594;2023-11-21T07:35:43;95229.03;;;9.51;55.04
23172;BME280;11754;42.664;23.594;2023-11-21T07:38:09;95223.75;;;9.68;55.32
23172;BME280;11754;42.664;23.594;2023-11-21T07:40:34;95227.34;;;9.99;54.51
23172;BME280;11754;42.664;23.594;2023-11-21T07:42:59;95230.88;;;10.23;54.30
23172;BME280;11754;42.664;23.594;2023-11-21T07:45:25;95235.59;;;10.44;53.37
23172;BME280;11754;42.664;23.594;2023-11-21T07:47:53;95225.94;;;10.67;51.75
23172;BME280;11754;42.664;23.594;2023-11-21T07:50:19;95226.41;;;10.71;51.88
23172;BME280;11754;42.664;23.594;2023-11-21T07:52:45;95216.13;;;11.07;51.01
23172;BME280;11754;42.664;23.594;2023-11-21T07:55:11;95231.50;;;11.49;50.54
23172;BME280;11754;42.664;23.594;2023-11-21T07:57:37;95219.13;;;11.88;49.30
23172;BME280;11754;42.664;23.594;2023-11-21T08:00:04;95212.41;;;12.00;49.13
23172;BME280;11754;42.664;23.594;2023-11-21T08:02:31;95219.88;;;12.11;48.42
23172;BME280;11754;42.664;23.594;2023-11-21T08:04:57;95215.47;;;11.89;48.75
23172;BME280;11754;42.664;23.594;2023-11-21T08:07:22;95218.19;;;11.81;49.00
23172;BME280;11754;42.664;23.594;2023-11-21T08:09:48;95219.13;;;11.65;49.48
23172;BME280;11754;42.664;23.594;2023-11-21T08:15:56;95212.25;;;11.41;49.72
23172;BME280;11754;42.664;23.594;2023-11-21T08:18:22;95207.56;;;11.51;50.04
23172;BME280;11754;42.664;23.594;2023-11-21T08:20:48;95205.13;;;11.79;49.34
23172;BME280;11754;42.664;23.594;2023-11-21T08:23:16;95210.31;;;11.95;49.05
23172;BME280;11754;42.664;23.594;2023-11-21T08:25:45;95207.41;;;12.05;48.86
23172;BME280;11754;42.664;23.594;2023-11-21T08:28:10;95212.13;;;12.39;48.33
23172;BME280;11754;42.664;23.594;2023-11-21T08:47:24;95209.25;;;14.34;43.88
23172;BME280;11754;42.664;23.594;2023-11-21T08:49:51;95206.44;;;14.77;42.51
23172;BME280;11754;42.664;23.594;2023-11-21T08:52:18;95206.13;;;15.06;42.51
23172;BME280;11754;42.664;23.594;2023-11-21T08:54:48;95209.34;;;14.95;42.06
23172;BME280;11754;42.664;23.594;2023-11-21T08:57:14;95203.28;;;15.21;41.83
23172;BME280;11754;42.664;23.594;2023-11-21T08:59:39;95194.28;;;16.42;39.32
23172;BME280;11754;42.664;23.594;2023-11-21T09:02:05;95191.66;;;16.93;38.14
23172;BME280;11754;42.664;23.594;2023-11-21T09:04:31;95178.91;;;17.34;37.30
23172;BME280;11754;42.664;23.594;2023-11-21T09:06:57;95169.03;;;18.16;36.14
23172;BME280;11754;42.664;23.594;2023-11-21T09:09:24;95166.22;;;18.11;35.10
23172;BME280;11754;42.664;23.594;2023-11-21T09:11:50;95169.91;;;18.28;35.04
23172;BME280;11754;42.664;23.594;2023-11-21T09:14:15;95162.63;;;19.09;34.66
23172;BME280;11754;42.664;23.594;2023-11-21T09:16:41;95158.16;;;19.86;33.30
23172;BME280;11754;42.664;23.594;2023-11-21T09:19:06;95155.50;;;20.10;32.01
23172;BME280;11754;42.664;23.594;2023-11-21T09:21:32;95145.19;;;20.66;31.24
23172;BME280;11754;42.664;23.594;2023-11-21T09:23:58;95131.06;;;20.82;31.50
23172;BME280;11754;42.664;23.594;2023-11-21T09:26:23;95134.81;;;20.69;30.44
23172;BME280;11754;42.664;23.594;2023-11-21T09:28:48;95126.50;;;20.30;31.36
23172;BME280;11754;42.664;23.594;2023-11-21T09:31:14;95101.84;;;20.05;31.93
23172;BME280;11754;42.664;23.594;2023-11-21T09:33:44;95098.59;;;19.79;32.29
23172;BME280;11754;42.664;23.594;2023-11-21T09:36:13;95081.00;;;19.48;32.68
23172;BME280;11754;42.664;23.594;2023-11-21T09:38:41;95072.03;;;19.42;33.09
23172;BME280;11754;42.664;23.594;2023-11-21T09:41:13;95074.88;;;19.95;32.43
23172;BME280;11754;42.664;23.594;2023-11-21T09:43:44;95064.56;;;20.27;32.27
23172;BME280;11754;42.664;23.594;2023-11-21T09:46:12;95048.19;;;20.52;31.73
23172;BME280;11754;42.664;23.594;2023-11-21T09:48:47;95044.75;;;20.97;30.97
23172;BME280;11754;42.664;23.594;2023-11-21T09:51:16;95033.84;;;21.88;30.00
23172;BME280;11754;42.664;23.594;2023-11-21T09:53:47;95027.59;;;22.65;29.45
23172;BME280;11754;42.664;23.594;2023-11-21T09:56:14;95017.34;;;23.90;27.33
23172;BME280;11754;42.664;23.594;2023-11-21T09:58:44;95006.09;;;24.66;26.44
23172;BME280;11754;42.664;23.594;2023-11-21T10:01:11;95005.78;;;26.31;24.74
23172;BME280;11754;42.664;23.594;2023-11-21T10:03:39;94993.84;;;27.66;23.12
23172;BME280;11754;42.664;23.594;2023-11-21T10:06:05;94991.78;;;28.11;22.04
23172;BME280;11754;42.664;23.594;2023-11-21T10:08:32;94980.34;;;27.90;21.96
23172;BME280;11754;42.664;23.594;2023-11-21T10:10:58;94968.19;;;28.35;21.87
23172;BME280;11754;42.664;23.594;2023-11-21T10:13:26;94952.84;;;28.68;21.59
23172;BME280;11754;42.664;23.594;2023-11-21T10:16:20;94949.44;;;30.07;20.25
23172;BME280;11754;42.664;23.594;2023-11-21T10:18:52;94949.75;;;30.97;19.35
23172;BME280;11754;42.664;23.594;2023-11-21T10:21:20;94941.03;;;32.16;18.34
23172;BME280;11754;42.664;23.594;2023-11-21T10:23:47;94945.06;;;33.54;17.27
23172;BME280;11754;42.664;23.594;2023-11-21T10:26:13;94930.50;;;34.98;15.95
23172;BME280;11754;42.664;23.594;2023-11-21T10:29:02;94933.00;;;36.12;15.16
23172;BME280;11754;42.664;23.594;2023-11-21T10:31:31;94929.03;;;37.67;14.64
23172;BME280;11754;42.664;23.594;2023-11-21T10:34:17;94914.94;;;38.32;14.21
23172;BME280;11754;42.664;23.594;2023-11-21T10:36:42;94924.53;;;39.44;13.14
23172;BME280;11754;42.664;23.594;2023-11-21T10:39:08;94917.34;;;39.81;12.81
23172;BME280;11754;42.664;23.594;2023-11-21T10:41:35;94915.06;;;39.06;13.04
23172;BME280;11754;42.664;23.594;2023-11-21T10:44:01;94915.94;;;38.23;13.60
23172;BME280;11754;42.664;23.594;2023-11-21T10:46:29;94900.13;;;38.36;13.21
23172;BME280;11754;42.664;23.594;2023-11-21T10:48:55;94906.22;;;38.97;13.13
23172;BME280;11754;42.664;23.594;2023-11-21T10:51:21;94900.47;;;38.19;13.36
23172;BME280;11754;42.664;23.594;2023-11-21T10:53:47;94896.28;;;38.25;13.52
23172;BME280;11754;42.664;23.594;2023-11-21T10:56:14;94901.94;;;36.85;13.64
23172;BME280;11754;42.664;23.594;2023-11-21T10:58:45;94905.03;;;33.49;16.53
23172;BME280;11754;42.664;23.594;2023-11-21T11:01:11;94902.00;;;30.55;18.58
23172;BME280;11754;42.664;23.594;2023-11-21T11:03:39;94907.34;;;27.98;20.48
23172;BME280;11754;42.664;23.594;2023-11-21T11:06:06;94910.41;;;25.00;23.71
23172;BME280;11754;42.664;23.594;2023-11-21T11:08:39;94921.56;;;22.50;27.10
23172;BME280;11754;42.664;23.594;2023-11-21T11:11:05;94915.56;;;21.33;29.03
23172;BME280;11754;42.664;23.594;2023-11-21T11:13:31;94922.84;;;19.44;31.86
23172;BME280;11754;42.664;23.594;2023-11-21T11:16:01;94914.69;;;18.57;33.32
23172;BME280;11754;42.664;23.594;2023-11-21T11:18:32;94917.34;;;17.85;34.38
23172;BME280;11754;42.664;23.594;2023-11-21T11:24:13;94923.75;;;16.47;37.83
23172;BME280;11754;42.664;23.594;2023-11-21T11:26:50;94914.34;;;16.20;38.84
23172;BME280;11754;42.664;23.594;2023-11-21T11:32:15;94898.28;;;16.33;38.71
23172;BME280;11754;42.664;23.594;2023-11-21T11:34:47;94908.81;;;15.83;39.99
23172;BME280;11754;42.664;23.594;2023-11-21T11:37:15;94894.25;;;15.41;40.66
23172;BME280;11754;42.664;23.594;2023-11-21T11:39:41;94893.56;;;15.65;40.74
23172;BME280;11754;42.664;23.594;2023-11-21T11:42:12;94879.41;;;15.78;40.36
23172;BME280;11754;42.664;23.594;2023-11-21T11:47:24;94878.22;;;15.60;40.75
23172;BME280;11754;42.664;23.594;2023-11-21T11:59:20;94867.59;;;15.67;41.10
23172;BME280;11754;42.664;23.594;2023-11-21T12:01:46;94843.75;;;15.85;41.13
23172;BME280;11754;42.664;23.594;2023-11-21T12:07:05;94874.41;;;15.95;40.75
23172;BME280;11754;42.664;23.594;2023-11-21T12:09:31;94868.47;;;15.93;40.90
23172;BME280;11754;42.664;23.594;2023-11-21T12:11:57;94865.84;;;15.86;40.83
23172;BME280;11754;42.664;23.594;2023-11-21T12:14:22;94863.59;;;15.83;41.42
23172;BME280;11754;42.664;23.594;2023-11-21T12:16:49;94865.94;;;15.73;41.66
23172;BME280;11754;42.664;23.594;2023-11-21T12:19:36;94855.31;;;15.73;42.18
23172;BME280;11754;42.664;23.594;2023-11-21T12:22:03;94865.97;;;15.59;42.19
23172;BME280;11754;42.664;23.594;2023-11-21T12:24:29;94848.78;;;15.10;43.33
23172;BME280;11754;42.664;23.594;2023-11-21T12:26:54;94867.03;;;14.87;43.93
23172;BME280;11754;42.664;23.594;2023-11-21T12:29:20;94878.47;;;14.81;44.86
23172;BME280;11754;42.664;23.594;2023-11-21T12:31:45;94884.59;;;14.48;45.57
23172;BME280;11754;42.664;23.594;2023-11-21T12:34:11;94885.03;;;14.32;46.76
23172;BME280;11754;42.664;23.594;2023-11-21T12:46:42;94906.19;;;14.12;47.97
23172;BME280;11754;42.664;23.594;2023-11-21T12:49:11;94911.47;;;13.85;48.78
23172;BME280;11754;42.664;23.594;2023-11-21T12:51:42;94902.91;;;13.90;47.96
23172;BME280;11754;42.664;23.594;2023-11-21T12:54:08;94892.69;;;13.87;48.39
23172;BME280;11754;42.664;23.594;2023-11-21T12:56:38;94899.22;;;13.91;48.02
23172;BME280;11754;42.664;23.594;2023-11-21T12:59:04;94898.00;;;13.87;47.97
23172;BME280;11754;42.664;23.594;2023-11-21T13:01:30;94897.19;;;13.93;47.45
23172;BME280;11754;42.664;23.594;2023-11-21T13:03:57;94881.28;;;13.93;47.10
23172;BME280;11754;42.664;23.594;2023-11-21T13:06:23;94856.03;;;14.04;47.40
23172;BME280;11754;42.664;23.594;2023-11-21T13:08:51;94869.88;;;13.99;47.36
23172;BME280;11754;42.664;23.594;2023-11-21T13:11:17;94865.13;;;13.61;47.00
23172;BME280;11754;42.664;23.594;2023-11-21T13:13:43;94874.00;;;13.40;48.06
23172;BME280;11754;42.664;23.594;2023-11-21T13:16:11;94856.06;;;13.36;48.43
23172;BME280;11754;42.664;23.594;2023-11-21T13:18:38;94851.41;;;13.44;48.22
23172;BME280;11754;42.664;23.594;2023-11-21T13:21:05;94858.78;;;13.49;47.53
23172;BME280;11754;42.664;23.594;2023-11-21T13:37:23;94841.63;;;13.45;48.30
23172;BME280;11754;42.664;23.594;2023-11-21T13:39:50;94842.03;;;13.49;48.26
23172;BME280;11754;42.664;23.594;2023-11-21T13:42:15;94839.44;;;13.14;48.62
23172;BME280;11754;42.664;23.594;2023-11-21T13:44:42;94848.00;;;13.09;49.57
23172;BME280;11754;42.664;23.594;2023-11-21T13:47:12;94849.63;;;13.10;49.65
23172;BME280;11754;42.664;23.594;2023-11-21T13:49:37;94834.13;;;13.07;49.45
23172;BME280;11754;42.664;23.594;2023-11-21T13:52:06;94829.47;;;13.09;49.52
23172;BME280;11754;42.664;23.594;2023-11-21T13:54:32;94828.53;;;13.24;49.08
23172;BME280;11754;42.664;23.594;2023-11-21T13:56:58;94826.09;;;13.29;49.22
23172;BME280;11754;42.664;23.594;2023-11-21T13:59:25;94840.59;;;13.39;49.55
23172;BME280;11754;42.664;23.594;2023-11-21T14:01:53;94835.47;;;13.38;49.40
23172;BME280;11754;42.664;23.594;2023-11-21T14:04:25;94839.47;;;13.20;49.87
23172;BME280;11754;42.664;23.594;2023-11-21T14:07:18;94830.25;;;13.03;50.27
23172;BME280;11754;42.664;23.594;2023-11-21T14:10:04;94836.13;;;13.05;50.33
23172;BME280;11754;42.664;23.594;2023-11-21T14:12:33;94827.97;;;13.00;50.47
23172;BME280;11754;42.664;23.594;2023-11-21T14:15:01;94833.28;;;13.00;50.69
23172;BME280;11754;42.664;23.594;2023-11-21T14:17:30;94838.34;;;12.95;50.73
23172;BME280;11754;42.664;23.594;2023-11-21T14:19:55;94838.09;;;12.90;50.82
23172;BME280;11754;42.664;23.594;2023-11-21T14:22:21;94821.75;;;12.80;50.82
23172;BME280;11754;42.664;23.594;2023-11-21T14:24:48;94841.94;;;12.81;51.40
23172;BME280;11754;42.664;23.594;2023-11-21T14:27:15;94841.50;;;12.77;52.27
23172;BME280;11754;42.664;23.594;2023-11-21T14:29:40;94823.13;;;12.62;52.16
23172;BME280;11754;42.664;23.594;2023-11-21T14:32:09;94834.25;;;12.58;52.61
23172;BME280;11754;42.664;23.594;2023-11-21T14:34:35;94847.31;;;12.59;53.10
23172;BME280;11754;42.664;23.594;2023-11-21T14:37:01;94849.28;;;12.50;53.39
23172;BME280;11754;42.664;23.594;2023-11-21T14:39:28;94830.03;;;12.35;53.38